»·PEaware :: UAL515 KSAN-KSFO

UAL515 :: KSAN-KSFO

FLIGHT INFORMATION

Flight Status: Arrived
Operator:
United Airlines
More flights by this operator :: More flights under this callsign
Pilot: Doug L. (8712)
Aircraft: BOEING 717-200
(B712)
More flights by this aircraft type
Origin: KSAN San Diego Intl-Lindbergh
United States
Destination: KSFO San Francisco Intl
United States
More flights between these airports :: More routes between these airports
Route: +PADRZ2 IKAYE RIZIN SPLNT STOKD SERFR WWAVS1
File this flight plan on PilotEdge
Remarks:
Altitude:
(Current/Filed)
32,000ft
Speed:
(Current/Filed)
425kts
Departed: 16-Jan-19 01:12 PM
Arrived: 16-Jan-19 02:29 PM
Distance/Time
Traveled:
388nm/1:17
Distance/Time
To Go:
Arrived

Flight Plot

Page will automatically refresh every two minutes.

Flight plan parsing failed; only flown route is shown


Map Options




Map Legend


Flown Route
Filed Route
Departure Airport
Arrival Airport
Navaid (VOR, NDB)
Fix

Horizontal Profiles

Position Reports

Time Latitude Longitude Heading Altitude Ground
Speed
16-Jan-19 12:56 32.734561 -117.203532 235 23ft 0kts
16-Jan-19 12:57 32.734561 -117.203532 235 23ft 0kts
16-Jan-19 12:58 32.734561 -117.203532 235 23ft 0kts
16-Jan-19 12:59 32.734561 -117.203532 235 23ft 0kts
16-Jan-19 13:00 32.734561 -117.203532 235 23ft 0kts
16-Jan-19 13:01 32.734561 -117.203532 235 23ft 0kts
16-Jan-19 13:02 32.734561 -117.203532 235 23ft 0kts
16-Jan-19 13:03 32.734561 -117.203532 235 23ft 0kts
16-Jan-19 13:04 32.734751 -117.203211 234 23ft 2kts
16-Jan-19 13:05 32.734843 -117.203054 234 23ft 0kts
16-Jan-19 13:06 32.734831 -117.203112 258 23ft 2kts
16-Jan-19 13:07 32.734543 -117.198606 115 23ft 34kts
16-Jan-19 13:08 32.732249 -117.188576 109 23ft 29kts
16-Jan-19 13:09 32.730593 -117.181632 105 23ft 13kts
16-Jan-19 13:10 32.729650 -117.175823 28 23ft 9kts
16-Jan-19 13:11 32.734227 -117.193052 289 56ft 166kts
16-Jan-19 13:12 32.758530 -117.252965 301 3364ft 205kts
16-Jan-19 13:13 32.799857 -117.318723 304 5463ft 270kts
16-Jan-19 13:14 32.846562 -117.391191 304 8722ft 282kts
16-Jan-19 13:15 32.895020 -117.466425 304 11941ft 290kts
16-Jan-19 13:17 32.945215 -117.544531 304 14893ft 304kts
16-Jan-19 13:18 32.998288 -117.627352 304 17168ft 334kts
16-Jan-19 13:19 33.055183 -117.715840 306 19974ft 339kts
16-Jan-19 13:20 33.129118 -117.796034 316 21980ft 363kts
16-Jan-19 13:21 33.204583 -117.874867 312 23877ft 362kts
16-Jan-19 13:22 33.277800 -117.961992 312 25557ft 381kts
16-Jan-19 13:23 33.354111 -118.053176 313 27237ft 392kts
16-Jan-19 13:24 33.431594 -118.146005 314 28904ft 393kts
16-Jan-19 13:25 33.508097 -118.237912 314 30568ft 383kts
16-Jan-19 13:26 33.582292 -118.327284 314 32083ft 376kts
16-Jan-19 13:27 33.657497 -118.420890 313 32229ft 407kts
16-Jan-19 13:28 33.736071 -118.520786 313 32223ft 411kts
16-Jan-19 13:29 33.814611 -118.620846 313 32222ft 411kts
16-Jan-19 13:30 33.893116 -118.721148 312 32221ft 410kts
16-Jan-19 13:31 33.971406 -118.821465 312 32218ft 411kts
16-Jan-19 13:32 34.049783 -118.922178 311 32211ft 414kts
16-Jan-19 13:33 34.128963 -119.024230 311 32206ft 414kts
16-Jan-19 13:34 34.207787 -119.126117 311 32201ft 414kts
16-Jan-19 13:35 34.286153 -119.227711 311 32204ft 414kts
16-Jan-19 13:36 34.364497 -119.329571 311 32203ft 413kts
16-Jan-19 13:37 34.442815 -119.431703 310 32200ft 413kts
16-Jan-19 13:38 34.520832 -119.533740 310 32186ft 412kts
16-Jan-19 13:39 34.598788 -119.636005 310 32181ft 413kts
16-Jan-19 13:40 34.676812 -119.738660 310 32184ft 413kts
16-Jan-19 13:40 34.741556 -119.824077 310 32162ft 412kts
16-Jan-19 13:42 34.832224 -119.944050 310 32144ft 411kts
16-Jan-19 13:43 34.909696 -120.046894 309 32136ft 412kts
16-Jan-19 13:43 34.974102 -120.132641 308 32117ft 412kts
16-Jan-19 13:44 35.051536 -120.236008 308 32108ft 412kts
16-Jan-19 13:45 35.128439 -120.338976 308 32105ft 412kts
16-Jan-19 13:46 35.205675 -120.442705 308 32105ft 411kts
16-Jan-19 13:47 35.282558 -120.546274 307 32104ft 411kts
16-Jan-19 13:48 35.359311 -120.649979 307 32103ft 410kts
16-Jan-19 13:49 35.436020 -120.753945 307 32098ft 411kts
16-Jan-19 13:50 35.519049 -120.851465 317 32092ft 418kts
16-Jan-19 13:51 35.612395 -120.937039 320 32088ft 422kts
16-Jan-19 13:52 35.714057 -121.010901 324 32083ft 426kts
16-Jan-19 13:53 35.816380 -121.084274 314 32078ft 418kts
16-Jan-19 13:54 35.902233 -121.179826 312 32069ft 416kts
16-Jan-19 13:55 35.989078 -121.276429 312 30125ft 413kts
16-Jan-19 13:56 36.074300 -121.368327 317 28096ft 406kts
16-Jan-19 13:57 36.169532 -121.443829 320 25940ft 403kts
16-Jan-19 13:58 36.264048 -121.517723 320 23535ft 401kts
16-Jan-19 13:59 36.356950 -121.590547 320 22173ft 392kts
16-Jan-19 14:00 36.448984 -121.662910 319 21421ft 389kts
16-Jan-19 14:01 36.539937 -121.734664 319 20699ft 386kts
16-Jan-19 14:02 36.630512 -121.806319 318 19117ft 381kts
16-Jan-19 14:03 36.718807 -121.876322 318 17577ft 365kts
16-Jan-19 14:04 36.795746 -121.951270 310 16023ft 342kts
16-Jan-19 14:05 36.867226 -122.026421 310 14485ft 330kts
16-Jan-19 14:06 36.936431 -122.099309 311 13012ft 320kts
16-Jan-19 14:07 37.002564 -122.169078 310 12154ft 302kts
16-Jan-19 14:08 37.066994 -122.237322 311 11754ft 303kts
16-Jan-19 14:09 37.133807 -122.297122 333 10998ft 305kts
16-Jan-19 14:10 37.214221 -122.325442 339 10297ft 306kts
16-Jan-19 14:11 37.295334 -122.353279 339 9659ft 304kts
16-Jan-19 14:12 37.376883 -122.381336 340 9016ft 303kts
16-Jan-19 14:13 37.458074 -122.409317 340 8378ft 300kts
16-Jan-19 14:14 37.537314 -122.436658 341 7610ft 289kts
16-Jan-19 14:15 37.614116 -122.463141 340 6649ft 282kts
16-Jan-19 14:16 37.689468 -122.472036 16 6003ft 268kts
16-Jan-19 14:17 37.760901 -122.446205 15 6000ft 267kts
16-Jan-19 14:18 37.832734 -122.424085 14 4891ft 284kts
16-Jan-19 14:19 37.905442 -122.398368 44 3062ft 249kts
16-Jan-19 14:20 37.906228 -122.331208 143 2986ft 192kts
16-Jan-19 14:21 37.864418 -122.300782 154 2989ft 161kts
16-Jan-19 14:22 37.824774 -122.274045 154 3009ft 160kts
16-Jan-19 14:23 37.782529 -122.267185 193 3017ft 162kts
16-Jan-19 14:24 37.741080 -122.291327 202 2401ft 164kts
16-Jan-19 14:25 37.704862 -122.315493 203 1694ft 137kts
16-Jan-19 14:26 37.671974 -122.337358 203 1027ft 142kts
16-Jan-19 14:27 37.637285 -122.360533 203 255ft 141kts
16-Jan-19 14:28 37.613009 -122.376962 259 21ft 22kts
16-Jan-19 14:29 37.613869 -122.380253 330 21ft 10kts
16-Jan-19 14:30 37.619192 -122.379516 312 21ft 25kts
16-Jan-19 14:31 37.620100 -122.383040 115 21ft 13kts
16-Jan-19 14:32 37.619207 -122.383512 286 21ft 0kts
16-Jan-19 14:33 37.619207 -122.383512 286 21ft 0kts

Navigation Log

Ident Type
Flight plan parsing failed, navigation log unavailable